sensor_id;sensor_type;location;lat;lon;timestamp;P1;durP1;ratioP1;P2;durP2;ratioP2
6566;SDS011;3317;43.994;22.878;2023-04-01T00:01:09;9.50;;;6.10;;
6566;SDS011;3317;43.994;22.878;2023-04-01T00:03:39;10.30;;;7.03;;
6566;SDS011;3317;43.994;22.878;2023-04-01T00:06:06;10.37;;;6.40;;
6566;SDS011;3317;43.994;22.878;2023-04-01T00:08:33;10.83;;;6.33;;
6566;SDS011;3317;43.994;22.878;2023-04-01T00:11:01;11.27;;;6.40;;
6566;SDS011;3317;43.994;22.878;2023-04-01T00:13:28;8.83;;;6.40;;
6566;SDS011;3317;43.994;22.878;2023-04-01T00:15:55;10.27;;;5.73;;
6566;SDS011;3317;43.994;22.878;2023-04-01T00:18:22;10.40;;;7.00;;
6566;SDS011;3317;43.994;22.878;2023-04-01T00:20:50;14.83;;;8.20;;
6566;SDS011;3317;43.994;22.878;2023-04-01T00:23:18;13.10;;;10.83;;
6566;SDS011;3317;43.994;22.878;2023-04-01T00:25:46;19.23;;;10.57;;
6566;SDS011;3317;43.994;22.878;2023-04-01T00:28:16;14.40;;;9.83;;
6566;SDS011;3317;43.994;22.878;2023-04-01T00:30:44;16.53;;;10.70;;
6566;SDS011;3317;43.994;22.878;2023-04-01T00:33:12;15.90;;;10.20;;
6566;SDS011;3317;43.994;22.878;2023-04-01T00:35:39;15.23;;;10.33;;
6566;SDS011;3317;43.994;22.878;2023-04-01T00:38:07;15.57;;;9.60;;
6566;SDS011;3317;43.994;22.878;2023-04-01T00:40:34;17.13;;;9.77;;
6566;SDS011;3317;43.994;22.878;2023-04-01T00:43:02;13.10;;;9.03;;
6566;SDS011;3317;43.994;22.878;2023-04-01T00:45:33;14.10;;;9.33;;
6566;SDS011;3317;43.994;22.878;2023-04-01T00:48:03;10.80;;;8.33;;
6566;SDS011;3317;43.994;22.878;2023-04-01T00:50:33;12.33;;;8.10;;
6566;SDS011;3317;43.994;22.878;2023-04-01T00:53:02;13.30;;;9.33;;
6566;SDS011;3317;43.994;22.878;2023-04-01T00:55:30;12.80;;;9.00;;
6566;SDS011;3317;43.994;22.878;2023-04-01T00:58:00;13.90;;;9.73;;
6566;SDS011;3317;43.994;22.878;2023-04-01T01:00:29;16.20;;;10.10;;
6566;SDS011;3317;43.994;22.878;2023-04-01T01:02:58;16.23;;;10.37;;
6566;SDS011;3317;43.994;22.878;2023-04-01T01:05:28;14.00;;;10.40;;
6566;SDS011;3317;43.994;22.878;2023-04-01T01:08:06;13.27;;;9.13;;
6566;SDS011;3317;43.994;22.878;2023-04-01T01:10:40;9.17;;;7.00;;
6566;SDS011;3317;43.994;22.878;2023-04-01T01:13:14;8.67;;;6.93;;
6566;SDS011;3317;43.994;22.878;2023-04-01T01:15:49;10.80;;;7.93;;
6566;SDS011;3317;43.994;22.878;2023-04-01T01:18:25;9.93;;;8.10;;
6566;SDS011;3317;43.994;22.878;2023-04-01T01:21:15;10.80;;;7.57;;
6566;SDS011;3317;43.994;22.878;2023-04-01T01:27:05;11.50;;;8.23;;
6566;SDS011;3317;43.994;22.878;2023-04-01T01:29:47;9.90;;;8.20;;
6566;SDS011;3317;43.994;22.878;2023-04-01T01:32:33;12.13;;;8.13;;
6566;SDS011;3317;43.994;22.878;2023-04-01T01:35:16;13.50;;;9.83;;
6566;SDS011;3317;43.994;22.878;2023-04-01T01:37:47;14.47;;;10.57;;
6566;SDS011;3317;43.994;22.878;2023-04-01T01:40:18;15.40;;;11.00;;
6566;SDS011;3317;43.994;22.878;2023-04-01T01:42:48;12.93;;;9.90;;
6566;SDS011;3317;43.994;22.878;2023-04-01T01:45:18;16.10;;;9.90;;
6566;SDS011;3317;43.994;22.878;2023-04-01T01:47:48;18.77;;;12.60;;
6566;SDS011;3317;43.994;22.878;2023-04-01T01:50:18;19.20;;;11.67;;
6566;SDS011;3317;43.994;22.878;2023-04-01T01:52:46;15.53;;;11.30;;
6566;SDS011;3317;43.994;22.878;2023-04-01T01:55:23;19.30;;;11.57;;
6566;SDS011;3317;43.994;22.878;2023-04-01T01:57:52;16.93;;;12.07;;
6566;SDS011;3317;43.994;22.878;2023-04-01T02:00:21;17.17;;;12.17;;
6566;SDS011;3317;43.994;22.878;2023-04-01T02:02:49;17.03;;;12.30;;
6566;SDS011;3317;43.994;22.878;2023-04-01T02:05:19;21.70;;;13.63;;
6566;SDS011;3317;43.994;22.878;2023-04-01T02:07:48;19.53;;;13.57;;
6566;SDS011;3317;43.994;22.878;2023-04-01T02:10:22;22.03;;;13.83;;
6566;SDS011;3317;43.994;22.878;2023-04-01T02:12:51;23.43;;;16.53;;
6566;SDS011;3317;43.994;22.878;2023-04-01T02:15:24;23.10;;;15.30;;
6566;SDS011;3317;43.994;22.878;2023-04-01T02:17:52;19.70;;;14.47;;
6566;SDS011;3317;43.994;22.878;2023-04-01T02:20:23;23.80;;;15.30;;
6566;SDS011;3317;43.994;22.878;2023-04-01T02:22:51;21.30;;;15.13;;
6566;SDS011;3317;43.994;22.878;2023-04-01T02:25:22;20.47;;;14.30;;
6566;SDS011;3317;43.994;22.878;2023-04-01T02:27:53;20.00;;;13.10;;
6566;SDS011;3317;43.994;22.878;2023-04-01T02:30:23;23.70;;;14.77;;
6566;SDS011;3317;43.994;22.878;2023-04-01T02:32:53;23.77;;;14.60;;
6566;SDS011;3317;43.994;22.878;2023-04-01T02:35:23;19.43;;;15.50;;
6566;SDS011;3317;43.994;22.878;2023-04-01T02:37:50;18.50;;;13.80;;
6566;SDS011;3317;43.994;22.878;2023-04-01T02:40:19;21.40;;;15.57;;
6566;SDS011;3317;43.994;22.878;2023-04-01T02:42:46;19.70;;;13.77;;
6566;SDS011;3317;43.994;22.878;2023-04-01T02:45:13;20.47;;;14.73;;
6566;SDS011;3317;43.994;22.878;2023-04-01T02:47:41;20.33;;;15.40;;
6566;SDS011;3317;43.994;22.878;2023-04-01T02:50:08;21.53;;;15.70;;
6566;SDS011;3317;43.994;22.878;2023-04-01T02:52:37;22.47;;;16.03;;
6566;SDS011;3317;43.994;22.878;2023-04-01T02:55:04;24.77;;;17.90;;
6566;SDS011;3317;43.994;22.878;2023-04-01T02:57:32;23.40;;;17.10;;
6566;SDS011;3317;43.994;22.878;2023-04-01T02:59:58;25.07;;;16.97;;
6566;SDS011;3317;43.994;22.878;2023-04-01T03:02:25;30.17;;;21.60;;
6566;SDS011;3317;43.994;22.878;2023-04-01T03:04:52;23.43;;;17.27;;
6566;SDS011;3317;43.994;22.878;2023-04-01T03:07:19;27.17;;;17.10;;
6566;SDS011;3317;43.994;22.878;2023-04-01T03:09:48;25.00;;;16.10;;
6566;SDS011;3317;43.994;22.878;2023-04-01T03:12:15;22.70;;;14.80;;
6566;SDS011;3317;43.994;22.878;2023-04-01T03:14:42;18.40;;;14.00;;
6566;SDS011;3317;43.994;22.878;2023-04-01T03:17:09;22.87;;;16.70;;
6566;SDS011;3317;43.994;22.878;2023-04-01T03:19:36;19.63;;;14.57;;
6566;SDS011;3317;43.994;22.878;2023-04-01T03:22:03;22.90;;;15.27;;
6566;SDS011;3317;43.994;22.878;2023-04-01T03:24:29;21.73;;;14.17;;
6566;SDS011;3317;43.994;22.878;2023-04-01T03:26:58;21.23;;;14.50;;
6566;SDS011;3317;43.994;22.878;2023-04-01T03:29:25;19.17;;;14.00;;
6566;SDS011;3317;43.994;22.878;2023-04-01T03:31:52;20.97;;;13.60;;
6566;SDS011;3317;43.994;22.878;2023-04-01T03:34:18;24.53;;;15.03;;
6566;SDS011;3317;43.994;22.878;2023-04-01T03:36:45;21.53;;;14.73;;
6566;SDS011;3317;43.994;22.878;2023-04-01T03:39:12;21.00;;;14.00;;
6566;SDS011;3317;43.994;22.878;2023-04-01T03:41:39;29.87;;;14.73;;
6566;SDS011;3317;43.994;22.878;2023-04-01T03:44:07;21.77;;;14.77;;
6566;SDS011;3317;43.994;22.878;2023-04-01T03:46:34;19.63;;;14.00;;
6566;SDS011;3317;43.994;22.878;2023-04-01T03:49:01;18.23;;;13.50;;
6566;SDS011;3317;43.994;22.878;2023-04-01T03:51:28;20.00;;;13.20;;
6566;SDS011;3317;43.994;22.878;2023-04-01T03:53:55;19.93;;;11.90;;
6566;SDS011;3317;43.994;22.878;2023-04-01T03:56:22;17.87;;;12.70;;
6566;SDS011;3317;43.994;22.878;2023-04-01T03:58:49;16.83;;;12.00;;
6566;SDS011;3317;43.994;22.878;2023-04-01T04:01:18;18.50;;;12.90;;
6566;SDS011;3317;43.994;22.878;2023-04-01T04:03:47;18.80;;;13.60;;
6566;SDS011;3317;43.994;22.878;2023-04-01T04:06:15;18.63;;;11.90;;
6566;SDS011;3317;43.994;22.878;2023-04-01T04:08:43;15.40;;;10.40;;
6566;SDS011;3317;43.994;22.878;2023-04-01T04:11:10;16.40;;;11.70;;
6566;SDS011;3317;43.994;22.878;2023-04-01T04:13:37;21.10;;;12.80;;
6566;SDS011;3317;43.994;22.878;2023-04-01T04:16:04;18.90;;;11.90;;
6566;SDS011;3317;43.994;22.878;2023-04-01T04:18:33;19.87;;;13.50;;
6566;SDS011;3317;43.994;22.878;2023-04-01T04:21:00;19.90;;;14.20;;
6566;SDS011;3317;43.994;22.878;2023-04-01T04:23:27;21.27;;;13.37;;
6566;SDS011;3317;43.994;22.878;2023-04-01T04:25:56;23.33;;;14.20;;
6566;SDS011;3317;43.994;22.878;2023-04-01T04:28:24;20.33;;;13.07;;
6566;SDS011;3317;43.994;22.878;2023-04-01T04:30:52;30.03;;;16.33;;
6566;SDS011;3317;43.994;22.878;2023-04-01T04:33:19;32.47;;;18.60;;
6566;SDS011;3317;43.994;22.878;2023-04-01T04:35:48;24.23;;;18.20;;
6566;SDS011;3317;43.994;22.878;2023-04-01T04:38:16;28.13;;;18.23;;
6566;SDS011;3317;43.994;22.878;2023-04-01T04:40:43;27.50;;;16.63;;
6566;SDS011;3317;43.994;22.878;2023-04-01T04:43:10;22.37;;;15.33;;
6566;SDS011;3317;43.994;22.878;2023-04-01T04:45:39;22.30;;;15.37;;
6566;SDS011;3317;43.994;22.878;2023-04-01T04:48:06;19.83;;;13.20;;
6566;SDS011;3317;43.994;22.878;2023-04-01T04:50:34;20.13;;;13.63;;
6566;SDS011;3317;43.994;22.878;2023-04-01T04:53:03;26.27;;;17.97;;
6566;SDS011;3317;43.994;22.878;2023-04-01T04:55:30;21.20;;;14.20;;
6566;SDS011;3317;43.994;22.878;2023-04-01T04:57:57;22.20;;;13.80;;
6566;SDS011;3317;43.994;22.878;2023-04-01T05:00:24;18.37;;;13.67;;
6566;SDS011;3317;43.994;22.878;2023-04-01T05:02:50;14.10;;;9.83;;
6566;SDS011;3317;43.994;22.878;2023-04-01T05:05:18;20.90;;;12.27;;
6566;SDS011;3317;43.994;22.878;2023-04-01T05:07:44;21.17;;;14.17;;
6566;SDS011;3317;43.994;22.878;2023-04-01T05:10:13;19.63;;;13.70;;
6566;SDS011;3317;43.994;22.878;2023-04-01T05:12:40;24.90;;;15.57;;
6566;SDS011;3317;43.994;22.878;2023-04-01T05:15:07;25.23;;;17.10;;
6566;SDS011;3317;43.994;22.878;2023-04-01T05:17:35;23.60;;;13.80;;
6566;SDS011;3317;43.994;22.878;2023-04-01T05:20:02;18.57;;;12.10;;
6566;SDS011;3317;43.994;22.878;2023-04-01T05:22:29;23.80;;;12.13;;
6566;SDS011;3317;43.994;22.878;2023-04-01T05:24:56;21.60;;;12.47;;
6566;SDS011;3317;43.994;22.878;2023-04-01T05:27:24;24.40;;;13.50;;
6566;SDS011;3317;43.994;22.878;2023-04-01T05:29:51;20.50;;;14.03;;
6566;SDS011;3317;43.994;22.878;2023-04-01T05:32:18;23.57;;;13.20;;
6566;SDS011;3317;43.994;22.878;2023-04-01T05:34:45;27.63;;;16.00;;
6566;SDS011;3317;43.994;22.878;2023-04-01T05:37:12;29.80;;;18.00;;
6566;SDS011;3317;43.994;22.878;2023-04-01T05:39:39;32.10;;;17.27;;
6566;SDS011;3317;43.994;22.878;2023-04-01T05:42:06;29.77;;;18.37;;
6566;SDS011;3317;43.994;22.878;2023-04-01T05:44:35;29.13;;;19.80;;
6566;SDS011;3317;43.994;22.878;2023-04-01T05:47:03;30.03;;;18.93;;
6566;SDS011;3317;43.994;22.878;2023-04-01T05:49:30;30.80;;;19.00;;
6566;SDS011;3317;43.994;22.878;2023-04-01T05:51:59;26.47;;;17.40;;
6566;SDS011;3317;43.994;22.878;2023-04-01T05:54:26;26.27;;;17.30;;
6566;SDS011;3317;43.994;22.878;2023-04-01T05:56:53;36.17;;;21.13;;
6566;SDS011;3317;43.994;22.878;2023-04-01T05:59:20;31.03;;;17.90;;
6566;SDS011;3317;43.994;22.878;2023-04-01T06:01:48;30.77;;;18.37;;
6566;SDS011;3317;43.994;22.878;2023-04-01T06:04:16;30.40;;;18.20;;
6566;SDS011;3317;43.994;22.878;2023-04-01T06:06:43;34.23;;;20.50;;
6566;SDS011;3317;43.994;22.878;2023-04-01T06:09:12;26.50;;;16.30;;
6566;SDS011;3317;43.994;22.878;2023-04-01T06:11:43;29.73;;;17.57;;
6566;SDS011;3317;43.994;22.878;2023-04-01T06:14:26;35.97;;;20.27;;
6566;SDS011;3317;43.994;22.878;2023-04-01T06:17:07;26.50;;;16.40;;
6566;SDS011;3317;43.994;22.878;2023-04-01T06:19:47;26.90;;;15.23;;
6566;SDS011;3317;43.994;22.878;2023-04-01T06:22:34;23.83;;;17.40;;
6566;SDS011;3317;43.994;22.878;2023-04-01T06:28:15;30.37;;;18.63;;
6566;SDS011;3317;43.994;22.878;2023-04-01T06:31:04;36.73;;;21.07;;
6566;SDS011;3317;43.994;22.878;2023-04-01T06:33:42;38.10;;;22.73;;
6566;SDS011;3317;43.994;22.878;2023-04-01T06:36:22;34.37;;;20.90;;
6566;SDS011;3317;43.994;22.878;2023-04-01T06:39:06;46.23;;;25.13;;
6566;SDS011;3317;43.994;22.878;2023-04-01T06:42:06;43.80;;;24.97;;
6566;SDS011;3317;43.994;22.878;2023-04-01T06:44:47;50.50;;;29.73;;
6566;SDS011;3317;43.994;22.878;2023-04-01T06:47:28;45.57;;;26.30;;
6566;SDS011;3317;43.994;22.878;2023-04-01T06:50:11;41.90;;;29.83;;
6566;SDS011;3317;43.994;22.878;2023-04-01T06:52:48;41.67;;;28.43;;
6566;SDS011;3317;43.994;22.878;2023-04-01T06:55:24;38.27;;;26.50;;
6566;SDS011;3317;43.994;22.878;2023-04-01T06:57:58;29.90;;;21.47;;
6566;SDS011;3317;43.994;22.878;2023-04-01T07:00:28;31.17;;;21.03;;
6566;SDS011;3317;43.994;22.878;2023-04-01T07:03:01;22.10;;;16.40;;
6566;SDS011;3317;43.994;22.878;2023-04-01T07:05:35;28.60;;;19.63;;
6566;SDS011;3317;43.994;22.878;2023-04-01T07:08:02;31.63;;;18.40;;
6566;SDS011;3317;43.994;22.878;2023-04-01T07:10:35;28.90;;;19.77;;
6566;SDS011;3317;43.994;22.878;2023-04-01T07:13:11;31.03;;;15.83;;
6566;SDS011;3317;43.994;22.878;2023-04-01T07:15:43;23.90;;;14.30;;
6566;SDS011;3317;43.994;22.878;2023-04-01T07:18:17;19.10;;;14.03;;
6566;SDS011;3317;43.994;22.878;2023-04-01T07:20:49;17.47;;;13.47;;
6566;SDS011;3317;43.994;22.878;2023-04-01T07:23:21;25.13;;;15.20;;
6566;SDS011;3317;43.994;22.878;2023-04-01T07:25:52;20.20;;;14.57;;
6566;SDS011;3317;43.994;22.878;2023-04-01T07:28:21;20.20;;;13.07;;
6566;SDS011;3317;43.994;22.878;2023-04-01T07:30:52;50.80;;;30.80;;
6566;SDS011;3317;43.994;22.878;2023-04-01T07:33:30;48.63;;;25.33;;
6566;SDS011;3317;43.994;22.878;2023-04-01T07:36:07;31.67;;;18.57;;
6566;SDS011;3317;43.994;22.878;2023-04-01T07:38:44;29.40;;;19.20;;
6566;SDS011;3317;43.994;22.878;2023-04-01T07:41:26;31.17;;;16.40;;
6566;SDS011;3317;43.994;22.878;2023-04-01T07:44:02;20.87;;;13.60;;
6566;SDS011;3317;43.994;22.878;2023-04-01T07:49:50;23.13;;;15.27;;
6566;SDS011;3317;43.994;22.878;2023-04-01T07:52:28;17.10;;;12.10;;
6566;SDS011;3317;43.994;22.878;2023-04-01T07:55:03;22.83;;;12.57;;
6566;SDS011;3317;43.994;22.878;2023-04-01T07:57:36;27.23;;;13.80;;
6566;SDS011;3317;43.994;22.878;2023-04-01T08:00:10;20.47;;;13.80;;
6566;SDS011;3317;43.994;22.878;2023-04-01T08:02:51;22.20;;;15.67;;
6566;SDS011;3317;43.994;22.878;2023-04-01T08:05:29;27.00;;;17.40;;
6566;SDS011;3317;43.994;22.878;2023-04-01T08:08:09;26.47;;;17.43;;
6566;SDS011;3317;43.994;22.878;2023-04-01T08:10:46;27.97;;;16.30;;
6566;SDS011;3317;43.994;22.878;2023-04-01T08:13:21;25.30;;;14.00;;
6566;SDS011;3317;43.994;22.878;2023-04-01T08:15:59;24.67;;;14.30;;
6566;SDS011;3317;43.994;22.878;2023-04-01T08:18:37;21.57;;;14.70;;
6566;SDS011;3317;43.994;22.878;2023-04-01T08:21:13;22.80;;;11.87;;
6566;SDS011;3317;43.994;22.878;2023-04-01T08:23:45;25.30;;;15.50;;
6566;SDS011;3317;43.994;22.878;2023-04-01T08:26:17;21.60;;;12.30;;
6566;SDS011;3317;43.994;22.878;2023-04-01T08:28:56;15.77;;;10.30;;
6566;SDS011;3317;43.994;22.878;2023-04-01T08:31:29;17.77;;;8.50;;
6566;SDS011;3317;43.994;22.878;2023-04-01T08:34:01;14.93;;;9.73;;
6566;SDS011;3317;43.994;22.878;2023-04-01T08:36:31;14.93;;;8.60;;
6566;SDS011;3317;43.994;22.878;2023-04-01T08:39:04;13.00;;;8.60;;
6566;SDS011;3317;43.994;22.878;2023-04-01T08:44:45;9.80;;;7.07;;
6566;SDS011;3317;43.994;22.878;2023-04-01T08:47:34;15.53;;;7.70;;
6566;SDS011;3317;43.994;22.878;2023-04-01T08:50:36;11.80;;;6.50;;
6566;SDS011;3317;43.994;22.878;2023-04-01T08:53:16;8.63;;;6.20;;
6566;SDS011;3317;43.994;22.878;2023-04-01T08:55:54;12.93;;;6.90;;
6566;SDS011;3317;43.994;22.878;2023-04-01T08:58:42;8.93;;;6.07;;
6566;SDS011;3317;43.994;22.878;2023-04-01T09:01:26;16.37;;;9.07;;
6566;SDS011;3317;43.994;22.878;2023-04-01T09:04:13;14.80;;;8.37;;
6566;SDS011;3317;43.994;22.878;2023-04-01T09:06:51;10.17;;;7.47;;
6566;SDS011;3317;43.994;22.878;2023-04-01T09:09:44;22.47;;;13.90;;
6566;SDS011;3317;43.994;22.878;2023-04-01T09:12:38;13.57;;;8.40;;
6566;SDS011;3317;43.994;22.878;2023-04-01T09:18:39;14.50;;;7.73;;
6566;SDS011;3317;43.994;22.878;2023-04-01T09:21:32;14.53;;;10.47;;
6566;SDS011;3317;43.994;22.878;2023-04-01T09:24:15;12.10;;;8.37;;
6566;SDS011;3317;43.994;22.878;2023-04-01T09:27:02;15.57;;;9.60;;
6566;SDS011;3317;43.994;22.878;2023-04-01T09:29:39;17.47;;;10.53;;
6566;SDS011;3317;43.994;22.878;2023-04-01T09:32:35;15.77;;;9.90;;
6566;SDS011;3317;43.994;22.878;2023-04-01T09:35:21;12.93;;;9.13;;
6566;SDS011;3317;43.994;22.878;2023-04-01T09:37:52;9.77;;;6.70;;
6566;SDS011;3317;43.994;22.878;2023-04-01T09:40:28;13.00;;;6.93;;
6566;SDS011;3317;43.994;22.878;2023-04-01T09:43:06;14.40;;;7.97;;
6566;SDS011;3317;43.994;22.878;2023-04-01T09:45:55;11.80;;;6.97;;
6566;SDS011;3317;43.994;22.878;2023-04-01T09:48:57;10.30;;;6.30;;
6566;SDS011;3317;43.994;22.878;2023-04-01T09:51:39;9.80;;;6.97;;
6566;SDS011;3317;43.994;22.878;2023-04-01T09:54:15;13.83;;;7.37;;
6566;SDS011;3317;43.994;22.878;2023-04-01T10:00:03;13.30;;;7.70;;
6566;SDS011;3317;43.994;22.878;2023-04-01T10:03:03;18.00;;;8.90;;
6566;SDS011;3317;43.994;22.878;2023-04-01T10:06:13;22.30;;;10.60;;
6566;SDS011;3317;43.994;22.878;2023-04-01T10:12:37;16.53;;;10.57;;
6566;SDS011;3317;43.994;22.878;2023-04-01T10:15:35;17.23;;;9.60;;
6566;SDS011;3317;43.994;22.878;2023-04-01T10:21:25;18.97;;;10.63;;
6566;SDS011;3317;43.994;22.878;2023-04-01T10:24:27;17.40;;;10.83;;
6566;SDS011;3317;43.994;22.878;2023-04-01T10:27:16;17.53;;;11.60;;
6566;SDS011;3317;43.994;22.878;2023-04-01T10:30:13;15.70;;;10.67;;
6566;SDS011;3317;43.994;22.878;2023-04-01T10:33:16;23.33;;;11.67;;
6566;SDS011;3317;43.994;22.878;2023-04-01T10:39:30;13.97;;;9.80;;
6566;SDS011;3317;43.994;22.878;2023-04-01T10:45:16;13.93;;;8.20;;
6566;SDS011;3317;43.994;22.878;2023-04-01T10:48:07;14.27;;;8.37;;
6566;SDS011;3317;43.994;22.878;2023-04-01T10:53:40;11.83;;;7.50;;
6566;SDS011;3317;43.994;22.878;2023-04-01T11:18:03;9.43;;;6.70;;
6566;SDS011;3317;43.994;22.878;2023-04-01T11:27:17;18.67;;;11.70;;
6566;SDS011;3317;43.994;22.878;2023-04-01T11:32:57;7.57;;;4.03;;
6566;SDS011;3317;43.994;22.878;2023-04-01T11:38:38;3.13;;;2.23;;
6566;SDS011;3317;43.994;22.878;2023-04-01T11:41:19;4.87;;;2.80;;
6566;SDS011;3317;43.994;22.878;2023-04-01T11:44:04;4.70;;;2.90;;
6566;SDS011;3317;43.994;22.878;2023-04-01T11:46:46;3.20;;;2.20;;
6566;SDS011;3317;43.994;22.878;2023-04-01T11:49:37;4.03;;;2.10;;
6566;SDS011;3317;43.994;22.878;2023-04-01T11:52:18;3.40;;;2.00;;
6566;SDS011;3317;43.994;22.878;2023-04-01T11:55:03;8.00;;;2.40;;
6566;SDS011;3317;43.994;22.878;2023-04-01T12:00:51;4.40;;;3.83;;
6566;SDS011;3317;43.994;22.878;2023-04-01T12:06:52;6.37;;;3.63;;
6566;SDS011;3317;43.994;22.878;2023-04-01T12:09:30;4.97;;;3.33;;
6566;SDS011;3317;43.994;22.878;2023-04-01T12:12:13;5.07;;;2.53;;
6566;SDS011;3317;43.994;22.878;2023-04-01T12:14:49;7.30;;;3.10;;
6566;SDS011;3317;43.994;22.878;2023-04-01T12:17:30;6.30;;;3.67;;
6566;SDS011;3317;43.994;22.878;2023-04-01T12:20:20;5.67;;;3.47;;
6566;SDS011;3317;43.994;22.878;2023-04-01T12:23:08;3.80;;;3.03;;
6566;SDS011;3317;43.994;22.878;2023-04-01T12:26:06;3.73;;;3.30;;
6566;SDS011;3317;43.994;22.878;2023-04-01T12:28:49;2.70;;;2.50;;
6566;SDS011;3317;43.994;22.878;2023-04-01T12:31:32;3.63;;;2.80;;
6566;SDS011;3317;43.994;22.878;2023-04-01T12:37:08;2.40;;;1.77;;
6566;SDS011;3317;43.994;22.878;2023-04-01T12:39:51;3.00;;;1.70;;
6566;SDS011;3317;43.994;22.878;2023-04-01T12:42:36;2.27;;;1.60;;
6566;SDS011;3317;43.994;22.878;2023-04-01T12:53:55;3.40;;;2.40;;
6566;SDS011;3317;43.994;22.878;2023-04-01T12:56:40;3.87;;;2.93;;
6566;SDS011;3317;43.994;22.878;2023-04-01T12:59:22;3.70;;;2.57;;
6566;SDS011;3317;43.994;22.878;2023-04-01T13:02:06;5.00;;;3.30;;
6566;SDS011;3317;43.994;22.878;2023-04-01T13:07:53;6.03;;;3.00;;
6566;SDS011;3317;43.994;22.878;2023-04-01T13:10:41;5.13;;;2.80;;
6566;SDS011;3317;43.994;22.878;2023-04-01T13:16:19;7.33;;;2.90;;
6566;SDS011;3317;43.994;22.878;2023-04-01T13:18:55;6.40;;;4.57;;
6566;SDS011;3317;43.994;22.878;2023-04-01T13:21:30;5.47;;;3.77;;
6566;SDS011;3317;43.994;22.878;2023-04-01T13:24:08;5.43;;;3.47;;
6566;SDS011;3317;43.994;22.878;2023-04-01T13:26:50;4.17;;;3.50;;
6566;SDS011;3317;43.994;22.878;2023-04-01T13:29:26;6.23;;;3.70;;
6566;SDS011;3317;43.994;22.878;2023-04-01T13:32:05;5.70;;;3.27;;
6566;SDS011;3317;43.994;22.878;2023-04-01T13:34:46;6.60;;;3.93;;
6566;SDS011;3317;43.994;22.878;2023-04-01T13:37:25;5.67;;;2.43;;
6566;SDS011;3317;43.994;22.878;2023-04-01T13:40:13;5.23;;;2.53;;
6566;SDS011;3317;43.994;22.878;2023-04-01T13:43:04;11.57;;;4.80;;
6566;SDS011;3317;43.994;22.878;2023-04-01T13:45:42;5.67;;;3.10;;
6566;SDS011;3317;43.994;22.878;2023-04-01T13:48:32;3.20;;;2.03;;
6566;SDS011;3317;43.994;22.878;2023-04-01T13:51:29;4.67;;;2.20;;
6566;SDS011;3317;43.994;22.878;2023-04-01T13:54:22;5.00;;;3.30;;
6566;SDS011;3317;43.994;22.878;2023-04-01T13:57:05;4.80;;;3.00;;
6566;SDS011;3317;43.994;22.878;2023-04-01T14:05:35;8.97;;;5.37;;
6566;SDS011;3317;43.994;22.878;2023-04-01T14:08:17;7.27;;;5.60;;
6566;SDS011;3317;43.994;22.878;2023-04-01T14:10:55;6.13;;;4.80;;
6566;SDS011;3317;43.994;22.878;2023-04-01T14:13:31;3.47;;;3.17;;
6566;SDS011;3317;43.994;22.878;2023-04-01T14:16:20;4.60;;;3.70;;
6566;SDS011;3317;43.994;22.878;2023-04-01T14:19:12;4.37;;;3.20;;
6566;SDS011;3317;43.994;22.878;2023-04-01T14:21:53;5.50;;;3.70;;
6566;SDS011;3317;43.994;22.878;2023-04-01T14:24:36;4.77;;;3.70;;
6566;SDS011;3317;43.994;22.878;2023-04-01T14:27:16;6.07;;;4.50;;
6566;SDS011;3317;43.994;22.878;2023-04-01T14:30:19;5.40;;;4.13;;
6566;SDS011;3317;43.994;22.878;2023-04-01T14:33:01;6.33;;;4.00;;
6566;SDS011;3317;43.994;22.878;2023-04-01T14:35:41;6.53;;;4.57;;
6566;SDS011;3317;43.994;22.878;2023-04-01T14:38:25;5.90;;;4.47;;
6566;SDS011;3317;43.994;22.878;2023-04-01T14:41:01;10.10;;;7.00;;
6566;SDS011;3317;43.994;22.878;2023-04-01T14:46:45;17.70;;;12.10;;
6566;SDS011;3317;43.994;22.878;2023-04-01T14:49:36;7.87;;;5.60;;
6566;SDS011;3317;43.994;22.878;2023-04-01T14:52:06;7.40;;;6.10;;
6566;SDS011;3317;43.994;22.878;2023-04-01T14:54:41;8.77;;;5.53;;
6566;SDS011;3317;43.994;22.878;2023-04-01T14:57:12;6.37;;;5.47;;
6566;SDS011;3317;43.994;22.878;2023-04-01T14:59:46;9.30;;;5.70;;
6566;SDS011;3317;43.994;22.878;2023-04-01T15:02:22;6.00;;;5.00;;
6566;SDS011;3317;43.994;22.878;2023-04-01T15:05:25;7.90;;;5.53;;
6566;SDS011;3317;43.994;22.878;2023-04-01T15:08:03;6.37;;;4.97;;
6566;SDS011;3317;43.994;22.878;2023-04-01T15:10:48;13.90;;;7.33;;
6566;SDS011;3317;43.994;22.878;2023-04-01T15:13:38;16.70;;;8.17;;
6566;SDS011;3317;43.994;22.878;2023-04-01T15:16:41;13.63;;;7.60;;
6566;SDS011;3317;43.994;22.878;2023-04-01T15:19:20;9.43;;;7.20;;
6566;SDS011;3317;43.994;22.878;2023-04-01T15:22:05;12.97;;;10.00;;
6566;SDS011;3317;43.994;22.878;2023-04-01T15:24:47;18.50;;;12.90;;
6566;SDS011;3317;43.994;22.878;2023-04-01T15:27:29;7.67;;;6.27;;
6566;SDS011;3317;43.994;22.878;2023-04-01T15:30:18;8.93;;;6.30;;
6566;SDS011;3317;43.994;22.878;2023-04-01T15:36:04;22.73;;;12.53;;
6566;SDS011;3317;43.994;22.878;2023-04-01T15:38:42;21.83;;;14.00;;
6566;SDS011;3317;43.994;22.878;2023-04-01T15:41:15;20.73;;;13.80;;
6566;SDS011;3317;43.994;22.878;2023-04-01T15:43:44;26.53;;;14.87;;
6566;SDS011;3317;43.994;22.878;2023-04-01T15:49:12;18.93;;;14.23;;
6566;SDS011;3317;43.994;22.878;2023-04-01T15:57:39;14.60;;;9.97;;
6566;SDS011;3317;43.994;22.878;2023-04-01T16:00:27;11.33;;;8.87;;
6566;SDS011;3317;43.994;22.878;2023-04-01T16:05:49;12.73;;;6.70;;
6566;SDS011;3317;43.994;22.878;2023-04-01T16:11:25;7.70;;;5.73;;
6566;SDS011;3317;43.994;22.878;2023-04-01T16:14:09;5.53;;;4.20;;
6566;SDS011;3317;43.994;22.878;2023-04-01T16:16:55;4.30;;;3.50;;
6566;SDS011;3317;43.994;22.878;2023-04-01T16:19:34;3.13;;;2.40;;
6566;SDS011;3317;43.994;22.878;2023-04-01T16:22:08;2.77;;;2.53;;
6566;SDS011;3317;43.994;22.878;2023-04-01T16:24:40;3.87;;;2.90;;
6566;SDS011;3317;43.994;22.878;2023-04-01T16:27:14;3.47;;;2.90;;
6566;SDS011;3317;43.994;22.878;2023-04-01T16:29:48;3.33;;;2.70;;
6566;SDS011;3317;43.994;22.878;2023-04-01T16:32:22;2.50;;;2.27;;
6566;SDS011;3317;43.994;22.878;2023-04-01T16:35:01;3.83;;;2.80;;
6566;SDS011;3317;43.994;22.878;2023-04-01T16:37:43;3.57;;;2.63;;
6566;SDS011;3317;43.994;22.878;2023-04-01T16:40:16;4.60;;;3.20;;
6566;SDS011;3317;43.994;22.878;2023-04-01T16:42:53;4.20;;;3.67;;
6566;SDS011;3317;43.994;22.878;2023-04-01T16:45:30;3.97;;;2.40;;
6566;SDS011;3317;43.994;22.878;2023-04-01T16:48:06;3.23;;;2.20;;
6566;SDS011;3317;43.994;22.878;2023-04-01T16:50:40;2.73;;;2.07;;
6566;SDS011;3317;43.994;22.878;2023-04-01T16:53:14;3.23;;;2.53;;
6566;SDS011;3317;43.994;22.878;2023-04-01T16:55:47;3.00;;;2.40;;
6566;SDS011;3317;43.994;22.878;2023-04-01T16:58:18;3.80;;;2.77;;
6566;SDS011;3317;43.994;22.878;2023-04-01T17:00:51;4.37;;;1.90;;
6566;SDS011;3317;43.994;22.878;2023-04-01T17:03:23;3.40;;;1.70;;
6566;SDS011;3317;43.994;22.878;2023-04-01T17:06:00;2.63;;;2.30;;
6566;SDS011;3317;43.994;22.878;2023-04-01T17:08:43;3.03;;;2.43;;
6566;SDS011;3317;43.994;22.878;2023-04-01T17:11:20;2.77;;;2.30;;
6566;SDS011;3317;43.994;22.878;2023-04-01T17:13:56;3.90;;;2.80;;
6566;SDS011;3317;43.994;22.878;2023-04-01T17:16:37;3.40;;;2.40;;
6566;SDS011;3317;43.994;22.878;2023-04-01T17:19:21;3.00;;;2.30;;
6566;SDS011;3317;43.994;22.878;2023-04-01T17:22:02;5.40;;;4.00;;
6566;SDS011;3317;43.994;22.878;2023-04-01T17:24:41;5.60;;;3.17;;
6566;SDS011;3317;43.994;22.878;2023-04-01T17:27:20;6.73;;;5.17;;
6566;SDS011;3317;43.994;22.878;2023-04-01T17:30:16;4.10;;;3.47;;
6566;SDS011;3317;43.994;22.878;2023-04-01T17:32:54;5.50;;;3.97;;
6566;SDS011;3317;43.994;22.878;2023-04-01T17:35:32;4.63;;;3.07;;
6566;SDS011;3317;43.994;22.878;2023-04-01T17:38:05;3.93;;;2.60;;